Time;durP1;ratioP1;P1;durP2;ratioP2;P2;SDS_P1;SDS_P2;PMS_P1;PMS_P2;Temp;Humidity;BMP_temperature;BMP_pressure;BME280_temperature;BME280_humidity;BME280_pressure;Samples;Min_cycle;Max_cycle;Signal;HPM_P1;HPM_P2
2023/02/01 00:00:01;;;;;;;11.57;8.10;;;;;19.80;100830.00;;;;2086645;28;21167;-52
2023/02/01 00:01:06;;;;;;;11.20;7.70;;;;;19.80;100830.00;;;;2091770;28;20216;-51
2023/02/01 00:02:06;;;;;;;11.32;7.10;;;;;19.80;100833.00;;;;2094558;28;20302;-52
2023/02/01 00:03:08;;;;;;;11.23;6.90;;;;;19.80;100836.00;;;;2094616;28;20208;-52
2023/02/01 00:04:08;;;;;;;10.05;7.18;;;;;19.80;100843.00;;;;2093570;28;20216;-52
2023/02/01 00:05:09;;;;;;;11.07;6.50;;;;;19.80;100837.00;;;;2094822;28;20238;-52
2023/02/01 00:06:09;;;;;;;8.87;5.90;;;;;19.80;100844.00;;;;2095291;28;20226;-51
2023/02/01 00:07:09;;;;;;;10.47;6.30;;;;;19.80;100851.00;;;;2095350;28;20239;-52
2023/02/01 00:08:10;;;;;;;10.60;6.97;;;;;19.80;100845.00;;;;2094556;28;20235;-52
2023/02/01 00:09:10;;;;;;;9.37;6.53;;;;;19.80;100851.00;;;;2095605;28;20220;-52
2023/02/01 00:10:11;;;;;;;9.20;6.60;;;;;19.80;100838.00;;;;2095370;28;20220;-52
2023/02/01 00:11:11;;;;;;;10.10;6.37;;;;;19.80;100833.00;;;;2095483;28;20250;-52
2023/02/01 00:12:12;;;;;;;11.50;6.60;;;;;19.70;100835.00;;;;2095511;28;20208;-51
2023/02/01 00:13:12;;;;;;;12.33;6.43;;;;;19.80;100830.00;;;;2095276;28;20450;-51
2023/02/01 00:14:13;;;;;;;11.37;6.30;;;;;19.70;100843.00;;;;2094891;28;20901;-52
2023/02/01 00:15:13;;;;;;;10.47;5.83;;;;;19.70;100831.00;;;;2095232;28;21052;-52
2023/02/01 00:16:19;;;;;;;9.30;5.67;;;;;19.70;100834.00;;;;2095466;28;20208;-51
2023/02/01 00:17:19;;;;;;;9.00;5.72;;;;;19.80;100836.00;;;;2095655;28;20216;-51
2023/02/01 00:18:19;;;;;;;10.07;5.70;;;;;19.70;100851.00;;;;2094384;28;20772;-52
2023/02/01 00:19:20;;;;;;;10.97;5.83;;;;;19.70;100839.00;;;;2095357;28;20209;-51
2023/02/01 00:20:20;;;;;;;8.07;5.53;;;;;19.70;100834.00;;;;2095214;28;20219;-52
2023/02/01 00:21:21;;;;;;;8.60;4.97;;;;;19.70;100834.00;;;;2095486;28;20223;-51
2023/02/01 00:22:21;;;;;;;8.70;5.57;;;;;19.70;100824.00;;;;2095634;28;20228;-51
2023/02/01 00:23:21;;;;;;;7.20;5.17;;;;;19.70;100830.00;;;;2095389;28;20220;-51
2023/02/01 00:24:21;;;;;;;7.77;5.20;;;;;19.70;100752.00;;;;2094170;28;20278;-51
2023/02/01 00:25:22;;;;;;;9.83;5.43;;;;;19.70;100848.00;;;;2094357;28;20231;-51
2023/02/01 00:26:30;;;;;;;10.23;4.90;;;;;19.70;100828.00;;;;2095268;28;20749;-51
2023/02/01 00:27:30;;;;;;;7.22;4.80;;;;;19.70;100829.00;;;;2095169;28;20706;-52
2023/02/01 00:28:30;;;;;;;5.90;4.10;;;;;19.70;100828.00;;;;2094730;28;20206;-51
2023/02/01 00:29:31;;;;;;;7.73;4.63;;;;;19.60;100827.00;;;;2095282;28;20208;-51
2023/02/01 00:30:31;;;;;;;7.33;4.17;;;;;19.60;100850.00;;;;2095444;28;20315;-52
2023/02/01 00:31:32;;;;;;;8.87;4.77;;;;;19.70;100818.00;;;;2095517;28;20596;-51
2023/02/01 00:32:32;;;;;;;7.33;4.33;;;;;19.60;100818.00;;;;2095397;28;20741;-51
2023/02/01 00:33:33;;;;;;;7.13;4.30;;;;;19.60;100814.00;;;;2095280;28;20721;-51
2023/02/01 00:34:33;;;;;;;6.47;4.40;;;;;19.60;100822.00;;;;2094913;28;20208;-51
2023/02/01 00:35:34;;;;;;;8.30;4.50;;;;;19.60;100815.00;;;;2094606;28;20662;-51
2023/02/01 00:36:34;;;;;;;9.18;4.88;;;;;19.60;100821.00;;;;2095405;28;20208;-51
2023/02/01 00:37:35;;;;;;;8.23;4.70;;;;;19.60;100815.00;;;;2095400;28;20243;-52
2023/02/01 00:38:36;;;;;;;6.97;4.30;;;;;19.60;100815.00;;;;2094471;28;20216;-52
2023/02/01 00:39:37;;;;;;;6.55;4.03;;;;;19.60;100819.00;;;;2095287;28;20215;-51
2023/02/01 00:40:37;;;;;;;5.63;4.10;;;;;19.60;100709.00;;;;2095268;28;21246;-51
2023/02/01 00:41:37;;;;;;;6.90;3.40;;;;;19.60;100810.00;;;;2095574;28;20216;-51
2023/02/01 00:42:38;;;;;;;8.23;4.43;;;;;19.60;100813.00;;;;2095605;28;20457;-51
2023/02/01 00:43:38;;;;;;;7.77;4.60;;;;;19.60;100806.00;;;;2095081;28;20900;-51
2023/02/01 00:44:38;;;;;;;6.90;4.60;;;;;19.60;100798.00;;;;2078417;28;20491;-51
2023/02/01 00:45:39;;;;;;;7.17;4.20;;;;;19.60;100795.00;;;;2078054;28;20229;-52
2023/02/01 00:46:39;;;;;;;5.90;3.80;;;;;19.60;100796.00;;;;2090950;28;20216;-51
2023/02/01 00:47:39;;;;;;;7.50;3.77;;;;;19.60;100792.00;;;;2089702;28;20262;-51
2023/02/01 00:48:40;;;;;;;7.33;4.23;;;;;19.60;100788.00;;;;2078356;28;20210;-51
2023/02/01 00:49:40;;;;;;;8.40;3.90;;;;;19.60;100787.00;;;;2086108;28;20220;-52
2023/02/01 00:50:42;;;;;;;6.60;3.40;;;;;19.60;100666.00;;;;2086774;28;20204;-51
2023/02/01 00:51:42;;;;;;;7.90;4.25;;;;;19.50;100780.00;;;;2087039;28;20228;-52
2023/02/01 00:52:42;;;;;;;6.17;3.60;;;;;19.60;100779.00;;;;2087377;28;20259;-51
2023/02/01 00:53:43;;;;;;;8.07;4.27;;;;;19.60;100798.00;;;;2087070;28;20236;-51
2023/02/01 00:54:43;;;;;;;7.40;3.50;;;;;19.60;100790.00;;;;2087202;28;20235;-51
2023/02/01 00:55:47;;;;;;;5.37;3.47;;;;;19.60;100797.00;;;;2087144;28;20204;-51
2023/02/01 00:56:47;;;;;;;5.88;3.63;;;;;19.50;100607.00;;;;2086094;28;20297;-51
2023/02/01 00:57:47;;;;;;;11.03;4.77;;;;;19.50;100801.00;;;;2086618;28;20299;-51
2023/02/01 00:58:48;;;;;;;5.70;3.10;;;;;19.50;100802.00;;;;2084883;28;20213;-51
2023/02/01 00:59:48;;;;;;;8.07;3.33;;;;;19.50;100800.00;;;;2087286;28;20247;-51
2023/02/01 01:00:49;;;;;;;7.47;4.30;;;;;19.50;100807.00;;;;2086966;28;20244;-51
2023/02/01 01:01:49;;;;;;;7.87;3.53;;;;;19.50;100806.00;;;;2086581;28;20216;-51
2023/02/01 01:02:49;;;;;;;6.03;3.00;;;;;19.50;100814.00;;;;2087373;28;20221;-51
2023/02/01 01:03:55;;;;;;;7.60;3.73;;;;;19.50;100816.00;;;;2086721;28;20623;-52
2023/02/01 01:04:55;;;;;;;7.50;3.30;;;;;19.50;100808.00;;;;2086694;28;20234;-51
2023/02/01 01:05:56;;;;;;;6.90;3.70;;;;;19.50;100818.00;;;;2086982;28;20220;-51
2023/02/01 01:06:57;;;;;;;7.32;3.45;;;;;19.50;100813.00;;;;2087038;28;20588;-51
2023/02/01 01:07:57;;;;;;;5.10;3.13;;;;;18.80;100832.00;;;;2085685;28;20231;-51
2023/02/01 01:08:58;;;;;;;7.17;3.60;;;;;19.50;100818.00;;;;2087192;28;20276;-51
2023/02/01 01:09:59;;;;;;;7.13;3.13;;;;;19.50;100810.00;;;;2086931;28;20213;-51
2023/02/01 01:11:03;;;;;;;5.60;3.00;;;;;19.50;100819.00;;;;2086945;28;20301;-51
2023/02/01 01:12:03;;;;;;;6.90;3.65;;;;;19.50;100822.00;;;;2087075;28;20737;-51
2023/02/01 01:13:04;;;;;;;6.10;3.07;;;;;19.50;100825.00;;;;2086935;28;20216;-51
2023/02/01 01:14:05;;;;;;;7.00;3.87;;;;;19.50;100815.00;;;;2085090;28;20233;-51
2023/02/01 01:15:06;;;;;;;6.83;3.30;;;;;19.50;100818.00;;;;2084720;28;20213;-51
2023/02/01 01:16:07;;;;;;;7.80;3.43;;;;;19.50;100804.00;;;;2086349;28;20459;-53
2023/02/01 01:17:08;;;;;;;6.65;3.63;;;;;19.50;100815.00;;;;2078157;28;20568;-51
2023/02/01 01:18:08;;;;;;;8.03;4.00;;;;;19.40;100808.00;;;;2077013;28;20205;-51
2023/02/01 01:19:08;;;;;;;6.97;3.20;;;;;19.50;100814.00;;;;2084696;28;20217;-55
2023/02/01 01:20:09;;;;;;;7.20;3.37;;;;;19.50;100797.00;;;;2078123;28;20210;-51
2023/02/01 01:21:11;;;;;;;6.03;3.10;;;;;19.40;100818.00;;;;2077813;28;20208;-51
2023/02/01 01:22:12;;;;;;;6.07;3.47;;;;;19.50;100814.00;;;;2082797;28;20444;-51
2023/02/01 01:23:12;;;;;;;7.40;3.87;;;;;19.40;100812.00;;;;2086068;28;20636;-52
2023/02/01 01:24:12;;;;;;;6.50;3.63;;;;;19.40;100820.00;;;;2086072;28;20205;-51
2023/02/01 01:25:13;;;;;;;9.23;4.17;;;;;19.50;100813.00;;;;2086587;28;20304;-52
2023/02/01 01:26:18;;;;;;;6.77;3.17;;;;;19.40;100814.00;;;;2086737;28;20267;-51
2023/02/01 01:27:23;;;;;;;8.27;3.58;;;;;19.40;100812.00;;;;2086621;28;20217;-52
2023/02/01 01:28:23;;;;;;;7.75;4.00;;;;;19.40;100810.00;;;;2085973;28;20285;-51
2023/02/01 01:29:24;;;;;;;8.23;3.50;;;;;19.40;100806.00;;;;2086586;28;20208;-51
2023/02/01 01:30:24;;;;;;;8.10;4.13;;;;;19.40;100807.00;;;;2086706;28;20693;-51
2023/02/01 01:31:24;;;;;;;7.80;4.00;;;;;19.40;100797.00;;;;2086671;28;20740;-51
2023/02/01 01:32:25;;;;;;;7.40;3.43;;;;;19.40;100798.00;;;;2086262;28;20691;-51
2023/02/01 01:33:25;;;;;;;7.63;3.90;;;;;19.40;100813.00;;;;2086644;28;20213;-51
2023/02/01 01:34:25;;;;;;;10.50;3.80;;;;;19.40;100797.00;;;;2085535;28;20212;-55
2023/02/01 01:35:26;;;;;;;6.87;3.40;;;;;19.40;100801.00;;;;2086645;28;20251;-51
2023/02/01 01:36:26;;;;;;;7.87;3.87;;;;;19.40;100792.00;;;;2086948;28;20204;-51
2023/02/01 01:37:26;;;;;;;8.30;3.90;;;;;19.40;100795.00;;;;2086794;28;20223;-51
2023/02/01 01:38:27;;;;;;;7.60;3.87;;;;;19.40;100796.00;;;;2085803;28;20208;-51
2023/02/01 01:39:27;;;;;;;7.70;4.43;;;;;19.40;100792.00;;;;2086071;28;20240;-51
2023/02/01 01:40:28;;;;;;;6.30;3.43;;;;;19.30;100792.00;;;;2085493;28;20224;-51
2023/02/01 01:41:30;;;;;;;8.00;3.90;;;;;19.40;100799.00;;;;2086611;28;20209;-51
2023/02/01 01:42:30;;;;;;;8.60;4.10;;;;;19.30;100803.00;;;;2086157;28;20224;-51
2023/02/01 01:43:48;;;;;;;6.30;3.70;;;;;19.40;100801.00;;;;2086931;28;20690;-51
2023/02/01 01:45:03;;;;;;;6.05;3.33;;;;;19.30;100795.00;;;;2086124;28;20216;-51
2023/02/01 01:46:04;;;;;;;9.73;4.38;;;;;19.30;100796.00;;;;2086208;28;20254;-51
2023/02/01 01:47:04;;;;;;;6.93;3.77;;;;;19.40;100797.00;;;;2086352;28;20233;-51
2023/02/01 01:48:07;;;;;;;7.97;4.43;;;;;19.40;100800.00;;;;2085557;28;20213;-51
2023/02/01 01:49:10;;;;;;;6.22;3.80;;;;;19.30;100797.00;;;;2086635;28;20213;-51
2023/02/01 01:50:19;;;;;;;8.55;4.70;;;;;19.30;100788.00;;;;2083294;28;20573;-51
2023/02/01 01:51:20;;;;;;;6.15;3.80;;;;;19.30;100788.00;;;;2077212;28;20600;-51
2023/02/01 01:52:20;;;;;;;10.40;4.45;;;;;19.30;100774.00;;;;2078147;28;20214;-51
2023/02/01 01:53:24;;;;;;;6.00;3.70;;;;;19.30;100789.00;;;;2086070;28;20304;-51
2023/02/01 01:54:45;;;;;;;6.30;3.90;;;;;19.30;100769.00;;;;2077727;28;20645;-51
2023/02/01 01:55:45;;;;;;;10.77;4.78;;;;;19.40;100781.00;;;;2077119;28;20224;-51
2023/02/01 01:56:48;;;;;;;6.40;4.10;;;;;19.40;100786.00;;;;2075965;28;20224;-51
2023/02/01 01:58:14;;;;;;;9.18;4.22;;;;;19.30;100776.00;;;;2077538;28;20221;-51
2023/02/01 01:59:14;;;;;;;9.15;4.63;;;;;19.30;100788.00;;;;2076851;28;20205;-51
2023/02/01 02:00:16;;;;;;;5.67;3.80;;;;;19.30;100780.00;;;;2086423;28;20201;-51
2023/02/01 02:01:16;;;;;;;8.07;3.70;;;;;19.30;100781.00;;;;2084084;28;20225;-51
2023/02/01 02:02:17;;;;;;;7.70;4.40;;;;;19.20;100780.00;;;;2077060;28;20263;-51
2023/02/01 02:03:18;;;;;;;9.27;3.90;;;;;19.30;100786.00;;;;2077742;28;20213;-51
2023/02/01 02:04:18;;;;;;;7.15;3.88;;;;;19.30;100772.00;;;;2077746;28;20220;-52
2023/02/01 02:05:19;;;;;;;6.90;3.67;;;;;19.30;100780.00;;;;2074109;28;20220;-51
2023/02/01 02:06:40;;;;;;;7.97;4.03;;;;;19.30;100790.00;;;;2085911;28;20208;-51
2023/02/01 02:07:43;;;;;;;7.30;3.70;;;;;19.20;100798.00;;;;2077073;28;20225;-51
2023/02/01 02:08:43;;;;;;;7.32;3.70;;;;;19.30;100765.00;;;;2076653;28;20839;-51
2023/02/01 02:09:44;;;;;;;6.40;3.47;;;;;19.30;100787.00;;;;2077270;28;20344;-51
2023/02/01 02:10:59;;;;;;;8.40;3.60;;;;;19.30;100788.00;;;;2069102;28;20214;-51
2023/02/01 02:11:59;;;;;;;6.97;3.60;;;;;19.30;100788.00;;;;2079634;28;20217;-51
2023/02/01 02:13:00;;;;;;;7.27;3.90;;;;;19.30;100782.00;;;;2086405;28;20220;-51
2023/02/01 02:14:00;;;;;;;6.70;3.47;;;;;19.20;100777.00;;;;2085980;28;20209;-51
2023/02/01 02:15:00;;;;;;;7.77;3.87;;;;;19.20;100784.00;;;;2085935;28;20255;-51
2023/02/01 02:16:01;;;;;;;9.33;3.87;;;;;19.20;100778.00;;;;2085556;28;20304;-51
2023/02/01 02:17:20;;;;;;;8.67;4.40;;;;;19.20;100778.00;;;;2085792;28;20631;-51
2023/02/01 02:18:47;;;;;;;4.60;3.10;;;;;19.30;100779.00;;;;2084400;28;20236;-51
2023/02/01 02:20:09;;;;;;;6.70;3.55;;;;;19.20;100783.00;;;;2044165;28;20215;-52
2023/02/01 02:21:24;;;;;;;7.05;4.22;;;;;19.30;100781.00;;;;2086386;28;20220;-51
2023/02/01 02:22:45;;;;;;;7.18;3.70;;;;;19.20;100769.00;;;;2077406;28;20209;-51
2023/02/01 02:24:02;;;;;;;7.10;3.65;;;;;19.20;100774.00;;;;2072286;28;20216;-51
2023/02/01 02:25:53;;;;;;;7.25;3.53;;;;;19.20;100777.00;;;;2079323;28;20327;-51
2023/02/01 02:27:24;;;;;;;6.53;3.53;;;;;19.20;100761.00;;;;2052375;28;20320;-51
2023/02/01 02:28:53;;;;;;;7.05;3.45;;;;;19.20;100768.00;;;;2051713;28;20228;-51
2023/02/01 02:30:02;;;;;;;10.05;4.18;;;;;19.20;100771.00;;;;2090570;28;20231;-51
2023/02/01 02:31:33;;;;;;;7.57;3.55;;;;;19.20;100763.00;;;;2094450;28;20335;-51
2023/02/01 02:33:07;;;;;;;7.05;3.50;;;;;19.20;100770.00;;;;2093872;28;20216;-51
2023/02/01 02:34:15;;;;;;;6.05;3.75;;;;;19.10;100776.00;;;;2041634;28;20212;-51
2023/02/01 02:35:47;;;;;;;8.60;3.30;;;;;19.20;100768.00;;;;2069887;28;20214;-51
2023/02/01 02:37:17;;;;;;;8.45;3.15;;;;;19.20;100786.00;;;;2085232;28;20809;-51
2023/02/01 02:38:38;;;;;;;8.27;3.25;;;;;19.20;100767.00;;;;2083122;28;20228;-51
2023/02/01 02:39:50;;;;;;;5.60;2.80;;;;;19.20;100776.00;;;;2069115;28;20279;-52
2023/02/01 02:47:23;;;;;;;6.55;3.55;;;;;19.10;100773.00;;;;2077827;28;20600;-51
2023/02/01 02:47:23;;;;;;;8.40;3.17;;;;;19.10;100760.00;;;;2055455;28;20234;-53
2023/02/01 02:48:32;;;;;;;5.55;2.90;;;;;19.10;100748.00;;;;2072264;28;20212;-52
2023/02/01 02:54:55;;;;;;;5.07;2.67;;;;;19.10;100737.00;;;;2056273;28;20454;-53
2023/02/01 03:04:08;;;;;;;6.38;2.70;;;;;19.10;100756.00;;;;2056170;28;20252;-52
2023/02/01 03:05:08;;;;;;;8.50;3.42;;;;;19.10;100748.00;;;;2056257;28;20222;-53
2023/02/01 03:06:16;;;;;;;6.67;2.87;;;;;19.10;100751.00;;;;2062152;28;20217;-52
2023/02/01 03:07:43;;;;;;;7.30;2.85;;;;;19.10;100748.00;;;;2052912;28;20227;-53
2023/02/01 03:08:45;;;;;;;5.40;2.85;;;;;19.10;100746.00;;;;2057507;28;21122;-53
2023/02/01 03:09:45;;;;;;;8.73;2.55;;;;;19.10;100752.00;;;;2069067;28;20233;-52
2023/02/01 03:11:02;;;;;;;8.33;3.80;;;;;19.10;100744.00;;;;2074114;28;20292;-52
2023/02/01 03:13:45;;;;;;;7.55;3.00;;;;;19.00;100744.00;;;;2080756;28;20304;-53
2023/02/01 03:14:47;;;;;;;5.75;3.20;;;;;19.00;100715.00;;;;2082751;28;20224;-52
2023/02/01 03:15:52;;;;;;;8.10;2.60;;;;;19.00;100731.00;;;;2086050;28;20224;-52
2023/02/01 03:16:57;;;;;;;7.05;3.17;;;;;19.00;100721.00;;;;2086298;28;20212;-53
2023/02/01 03:17:58;;;;;;;7.50;2.28;;;;;19.00;100730.00;;;;2089483;28;20215;-52
2023/02/01 03:19:06;;;;;;;8.10;2.70;;;;;19.00;100732.00;;;;2089809;28;20727;-52
2023/02/01 03:20:07;;;;;;;4.50;2.80;;;;;19.00;100716.00;;;;2094522;28;20287;-52
2023/02/01 03:21:14;;;;;;;7.23;3.10;;;;;19.00;100727.00;;;;2087923;28;20298;-53
2023/02/01 03:22:22;;;;;;;6.95;2.97;;;;;18.90;100727.00;;;;2092071;28;20204;-52
2023/02/01 03:23:23;;;;;;;7.50;2.88;;;;;18.90;100711.00;;;;2085565;28;20702;-52
2023/02/01 03:24:32;;;;;;;6.55;2.90;;;;;19.00;100740.00;;;;2093994;28;20741;-52
2023/02/01 03:25:33;;;;;;;7.30;2.70;;;;;19.00;100721.00;;;;2084794;28;20268;-52
2023/02/01 03:26:34;;;;;;;5.63;2.50;;;;;19.00;100723.00;;;;2078626;28;20252;-52
2023/02/01 03:27:41;;;;;;;5.80;2.53;;;;;19.00;100716.00;;;;2092004;28;20734;-52
2023/02/01 03:28:43;;;;;;;7.13;3.20;;;;;19.00;100717.00;;;;2095054;28;21070;-52
2023/02/01 03:30:06;;;;;;;4.95;2.25;;;;;19.00;100724.00;;;;2088641;28;20295;-53
2023/02/01 03:31:07;;;;;;;8.35;3.00;;;;;19.00;100707.00;;;;2091503;28;20241;-53
2023/02/01 03:32:09;;;;;;;8.43;2.60;;;;;19.00;100704.00;;;;2086839;28;20231;-52
2023/02/01 03:33:21;;;;;;;5.13;2.65;;;;;19.00;100713.00;;;;2088966;28;20763;-52
2023/02/01 03:34:22;;;;;;;5.85;2.80;;;;;19.00;100691.00;;;;2097026;28;20306;-52
2023/02/01 03:35:40;;;;;;;6.17;2.87;;;;;18.90;100725.00;;;;2096650;28;20208;-52
2023/02/01 03:36:42;;;;;;;9.05;3.05;;;;;18.90;100709.00;;;;2080284;28;20212;-53
2023/02/01 03:37:42;;;;;;;7.28;2.88;;;;;18.90;100705.00;;;;2082382;28;20286;-52
2023/02/01 03:39:05;;;;;;;6.10;2.73;;;;;18.90;100714.00;;;;2096124;28;20621;-53
2023/02/01 03:40:07;;;;;;;8.65;3.15;;;;;18.90;100713.00;;;;2094193;28;20205;-53
2023/02/01 03:41:31;;;;;;;7.20;2.70;;;;;18.90;100712.00;;;;2088939;28;20251;-52
2023/02/01 03:42:36;;;;;;;5.20;2.40;;;;;18.90;100710.00;;;;2096646;28;20223;-52
2023/02/01 03:43:55;;;;;;;7.88;2.50;;;;;18.90;100712.00;;;;2093879;28;20208;-53
2023/02/01 03:45:11;;;;;;;8.05;3.50;;;;;18.90;100709.00;;;;2095998;28;20318;-52
2023/02/01 03:46:13;;;;;;;7.40;2.90;;;;;18.90;100702.00;;;;2095944;28;20226;-52
2023/02/01 03:47:20;;;;;;;4.90;2.70;;;;;18.90;100711.00;;;;2096082;28;20686;-53
2023/02/01 03:48:20;;;;;;;8.35;2.63;;;;;18.90;100709.00;;;;2084916;28;20696;-52
2023/02/01 03:49:24;;;;;;;10.50;2.97;;;;;18.90;100705.00;;;;2079571;28;20236;-53
2023/02/01 03:50:27;;;;;;;7.07;2.75;;;;;18.90;100716.00;;;;2080190;28;20205;-53
2023/02/01 03:51:28;;;;;;;6.78;2.70;;;;;18.90;100716.00;;;;2079506;28;20236;-53
2023/02/01 03:52:30;;;;;;;6.63;2.60;;;;;18.90;100709.00;;;;2079599;28;20704;-52
2023/02/01 03:53:31;;;;;;;6.78;2.38;;;;;18.90;100720.00;;;;2087870;28;20226;-56
2023/02/01 03:54:31;;;;;;;6.90;2.70;;;;;18.90;100716.00;;;;2088908;28;20208;-54
2023/02/01 03:55:31;;;;;;;4.50;2.40;;;;;18.90;100699.00;;;;2088387;28;20694;-53
2023/02/01 03:56:32;;;;;;;7.40;2.83;;;;;18.90;100696.00;;;;2088635;28;20600;-53
2023/02/01 03:57:34;;;;;;;7.50;2.70;;;;;18.90;100702.00;;;;2096620;28;20215;-52
2023/02/01 03:58:35;;;;;;;8.45;2.95;;;;;18.80;100694.00;;;;2087819;28;20220;-53
2023/02/01 03:59:41;;;;;;;8.60;2.80;;;;;18.80;100679.00;;;;2088809;28;20204;-52
2023/02/01 04:00:44;;;;;;;7.25;2.90;;;;;18.80;100673.00;;;;2097255;28;20211;-52
2023/02/01 04:01:45;;;;;;;6.28;2.45;;;;;18.90;100678.00;;;;2090792;28;20215;-53
2023/02/01 04:02:45;;;;;;;5.83;2.93;;;;;18.90;100663.00;;;;2088505;28;20208;-52
2023/02/01 04:03:46;;;;;;;10.70;2.97;;;;;18.80;100669.00;;;;2098924;28;20211;-52
2023/02/01 04:04:46;;;;;;;7.00;2.90;;;;;18.80;100659.00;;;;2105790;28;20678;-53
2023/02/01 04:05:47;;;;;;;5.90;2.80;;;;;18.80;100669.00;;;;2105715;28;20246;-52
2023/02/01 04:06:51;;;;;;;8.75;2.47;;;;;18.80;100670.00;;;;2105625;28;20231;-52
2023/02/01 04:07:51;;;;;;;11.65;3.50;;;;;18.80;100668.00;;;;2105376;28;20211;-52
2023/02/01 04:08:52;;;;;;;7.57;2.73;;;;;18.80;100669.00;;;;2105028;28;20225;-52
2023/02/01 04:09:52;;;;;;;6.80;2.50;;;;;18.80;100673.00;;;;2105618;28;20219;-53
2023/02/01 04:10:52;;;;;;;8.57;3.07;;;;;18.80;100684.00;;;;2105495;28;20292;-53
2023/02/01 04:11:53;;;;;;;9.93;4.07;;;;;18.80;100673.00;;;;2096681;28;20223;-52
2023/02/01 04:12:53;;;;;;;7.77;3.13;;;;;18.80;100678.00;;;;2096499;28;20240;-53
2023/02/01 04:13:53;;;;;;;5.67;2.37;;;;;18.80;100676.00;;;;2105155;28;20322;-52
2023/02/01 04:14:54;;;;;;;7.67;2.77;;;;;18.80;100664.00;;;;2105709;28;20291;-53
2023/02/01 04:15:54;;;;;;;10.20;3.23;;;;;18.80;100659.00;;;;2105735;28;20235;-52
2023/02/01 04:16:54;;;;;;;10.83;3.23;;;;;18.80;100658.00;;;;2105848;28;20215;-52
2023/02/01 04:17:54;;;;;;;8.13;2.93;;;;;18.80;100674.00;;;;2104709;28;20249;-52
2023/02/01 04:18:55;;;;;;;4.63;2.00;;;;;18.80;100688.00;;;;2096007;28;20212;-52
2023/02/01 04:19:55;;;;;;;9.60;3.27;;;;;18.80;100674.00;;;;2096098;28;20220;-52
2023/02/01 04:20:55;;;;;;;7.17;2.70;;;;;18.80;100673.00;;;;2105521;28;20242;-52
2023/02/01 04:21:56;;;;;;;6.13;3.10;;;;;18.80;100677.00;;;;2104555;28;20215;-53
2023/02/01 04:22:56;;;;;;;6.90;2.83;;;;;18.80;100672.00;;;;2105664;28;20832;-52
2023/02/01 04:23:56;;;;;;;7.20;2.50;;;;;18.80;100672.00;;;;2105495;28;20756;-52
2023/02/01 04:24:57;;;;;;;10.03;3.53;;;;;18.80;100684.00;;;;2104980;28;20722;-52
2023/02/01 04:26:01;;;;;;;9.10;3.23;;;;;18.80;100690.00;;;;2105373;28;20686;-52
2023/02/01 04:27:02;;;;;;;9.25;3.30;;;;;18.80;100689.00;;;;2105054;28;20640;-52
2023/02/01 04:28:02;;;;;;;6.32;2.88;;;;;18.80;100690.00;;;;2104727;28;20268;-52
2023/02/01 04:29:03;;;;;;;5.93;2.70;;;;;18.80;100685.00;;;;2105620;28;20230;-52
2023/02/01 04:30:04;;;;;;;6.23;2.80;;;;;18.70;100693.00;;;;2105724;28;20211;-52
2023/02/01 04:31:04;;;;;;;7.05;3.13;;;;;18.80;100691.00;;;;2104922;28;20240;-52
2023/02/01 04:32:05;;;;;;;8.57;3.33;;;;;18.80;100695.00;;;;2105461;28;20204;-52
2023/02/01 04:33:05;;;;;;;5.93;2.73;;;;;18.70;100687.00;;;;2105525;28;20211;-52
2023/02/01 04:34:05;;;;;;;8.97;3.83;;;;;18.70;100692.00;;;;2103500;28;20233;-52
2023/02/01 04:35:06;;;;;;;9.33;2.77;;;;;18.80;100696.00;;;;2105450;28;20278;-52
2023/02/01 04:36:06;;;;;;;7.57;2.67;;;;;18.70;100683.00;;;;2105373;28;20211;-52
2023/02/01 04:37:07;;;;;;;7.53;2.87;;;;;18.80;100689.00;;;;2097126;28;20239;-55
2023/02/01 04:38:07;;;;;;;6.90;3.20;;;;;18.70;100682.00;;;;2100214;28;20215;-54
2023/02/01 04:39:09;;;;;;;8.03;3.00;;;;;18.70;100684.00;;;;2096146;28;20219;-53
2023/02/01 04:40:10;;;;;;;5.40;2.83;;;;;18.80;100685.00;;;;2095723;28;20215;-52
2023/02/01 04:41:10;;;;;;;6.50;3.20;;;;;18.70;100676.00;;;;2095261;28;20303;-53
2023/02/01 04:42:10;;;;;;;9.87;2.80;;;;;18.70;100684.00;;;;2095749;28;20452;-52
2023/02/01 04:43:11;;;;;;;6.87;2.70;;;;;18.70;100691.00;;;;2095742;28;20211;-52
2023/02/01 04:44:15;;;;;;;9.10;3.13;;;;;18.70;100690.00;;;;2095426;28;20692;-53
2023/02/01 04:45:16;;;;;;;6.38;3.00;;;;;18.70;100683.00;;;;2086554;28;20581;-52
2023/02/01 04:46:16;;;;;;;7.27;2.40;;;;;18.70;100689.00;;;;2087437;28;20215;-52
2023/02/01 04:47:16;;;;;;;7.23;2.33;;;;;18.70;100698.00;;;;2094844;28;20227;-52
2023/02/01 04:48:17;;;;;;;7.73;2.90;;;;;18.70;100688.00;;;;2094412;28;20215;-52
2023/02/01 04:49:17;;;;;;;6.97;3.03;;;;;18.70;100694.00;;;;2095919;28;20215;-52
2023/02/01 04:50:18;;;;;;;5.83;3.13;;;;;18.70;100712.00;;;;2095704;28;20209;-52
2023/02/01 04:51:18;;;;;;;8.40;3.33;;;;;18.70;100689.00;;;;2095049;28;20223;-52
2023/02/01 04:52:18;;;;;;;8.00;2.70;;;;;18.70;100708.00;;;;2095442;28;20219;-52
2023/02/01 04:53:19;;;;;;;8.17;2.70;;;;;18.70;100704.00;;;;2095589;28;20219;-52
2023/02/01 04:54:19;;;;;;;7.67;2.93;;;;;18.70;100714.00;;;;2095800;28;20228;-52
2023/02/01 04:55:19;;;;;;;7.77;3.00;;;;;18.70;100693.00;;;;2095703;28;20275;-52
2023/02/01 04:56:20;;;;;;;8.07;3.03;;;;;18.70;100706.00;;;;2095465;28;20230;-52
2023/02/01 04:57:20;;;;;;;7.33;3.20;;;;;18.70;100724.00;;;;2095769;28;20219;-52
2023/02/01 04:58:20;;;;;;;7.37;2.90;;;;;18.60;100713.00;;;;2094853;28;20238;-52
2023/02/01 04:59:21;;;;;;;9.23;3.80;;;;;18.60;100701.00;;;;2094602;28;20215;-52
2023/02/01 05:00:22;;;;;;;6.70;2.70;;;;;18.60;100713.00;;;;2094525;28;20262;-53
2023/02/01 05:01:22;;;;;;;6.70;3.13;;;;;18.70;100701.00;;;;2095410;28;20462;-52
2023/02/01 05:02:22;;;;;;;6.63;2.73;;;;;18.70;100710.00;;;;2095658;28;20220;-52
2023/02/01 05:03:23;;;;;;;9.00;2.90;;;;;18.70;100709.00;;;;2095660;28;20898;-52
2023/02/01 05:04:23;;;;;;;8.47;4.03;;;;;18.70;100692.00;;;;2095516;28;20262;-52
2023/02/01 05:05:24;;;;;;;6.93;2.83;;;;;18.60;100694.00;;;;2095063;28;20216;-52
2023/02/01 05:06:24;;;;;;;9.00;3.00;;;;;18.70;100706.00;;;;2094392;28;20585;-52
2023/02/01 05:07:24;;;;;;;6.37;3.10;;;;;18.60;100689.00;;;;2095196;28;20235;-52
2023/02/01 05:08:26;;;;;;;8.50;3.20;;;;;18.60;100705.00;;;;2094488;28;20204;-52
2023/02/01 05:09:26;;;;;;;7.22;2.65;;;;;18.60;100689.00;;;;2095588;28;20212;-52
2023/02/01 05:10:27;;;;;;;6.33;2.60;;;;;18.60;100695.00;;;;2095088;28;20223;-53
2023/02/01 05:14:18;;;;;;;8.07;3.20;;;;;18.60;100695.00;;;;2069019;28;20721;-53
2023/02/01 05:15:18;;;;;;;8.23;3.20;;;;;18.60;100697.00;;;;2092665;28;20234;-52
2023/02/01 05:16:19;;;;;;;8.40;3.40;;;;;18.60;100705.00;;;;2103697;28;20210;-52
2023/02/01 05:17:19;;;;;;;8.83;2.93;;;;;18.60;100707.00;;;;2103441;28;20207;-52
2023/02/01 05:18:19;;;;;;;6.70;2.80;;;;;18.60;100703.00;;;;2102413;28;20281;-52
2023/02/01 05:19:20;;;;;;;7.83;2.90;;;;;18.60;100693.00;;;;2103481;28;20208;-52
2023/02/01 05:20:20;;;;;;;8.13;3.10;;;;;18.60;100697.00;;;;2103658;28;20215;-52
2023/02/01 05:21:20;;;;;;;7.17;2.80;;;;;18.60;100694.00;;;;2104003;28;20587;-52
2023/02/01 05:22:21;;;;;;;10.23;3.43;;;;;18.60;100695.00;;;;2103844;28;20619;-52
2023/02/01 05:23:21;;;;;;;7.60;3.13;;;;;18.60;100686.00;;;;2103540;28;20211;-52
2023/02/01 05:24:21;;;;;;;5.87;2.60;;;;;18.60;100696.00;;;;2103515;28;20233;-52
2023/02/01 05:25:22;;;;;;;8.40;3.20;;;;;18.60;100690.00;;;;2102813;28;20203;-52
2023/02/01 05:26:22;;;;;;;5.90;2.40;;;;;18.60;100692.00;;;;2103572;28;20682;-52
2023/02/01 05:27:22;;;;;;;9.70;3.60;;;;;18.60;100700.00;;;;2103649;28;20276;-52
2023/02/01 05:28:23;;;;;;;12.60;3.20;;;;;18.60;100705.00;;;;2102002;28;20216;-52
2023/02/01 05:29:23;;;;;;;9.50;3.30;;;;;18.50;100711.00;;;;2102764;28;20294;-53
2023/02/01 05:30:23;;;;;;;6.90;2.90;;;;;18.50;100713.00;;;;2103550;28;20207;-53
2023/02/01 05:31:24;;;;;;;7.50;3.30;;;;;18.50;100703.00;;;;2103533;28;20215;-52
2023/02/01 05:32:24;;;;;;;6.80;3.17;;;;;18.60;100716.00;;;;2103158;28;20226;-53
2023/02/01 05:33:24;;;;;;;7.33;3.10;;;;;18.60;100704.00;;;;2103631;28;20199;-52
2023/02/01 05:34:25;;;;;;;10.90;3.50;;;;;18.60;100708.00;;;;2103275;28;20257;-52
2023/02/01 05:35:25;;;;;;;8.87;3.23;;;;;18.60;100707.00;;;;2103457;28;20256;-52
2023/02/01 05:36:25;;;;;;;9.23;3.37;;;;;18.60;100705.00;;;;2103406;28;20204;-52